sensor_id;sensor_type;location;lat;lon;timestamp;P1;durP1;ratioP1;P2;durP2;ratioP2
36383;SDS011;22418;51.210;6.976;2022-12-07T00:02:04;29.53;;;18.00;;
36383;SDS011;22418;51.210;6.976;2022-12-07T00:04:34;32.47;;;18.17;;
36383;SDS011;22418;51.210;6.976;2022-12-07T00:07:05;34.27;;;17.77;;
36383;SDS011;22418;51.210;6.976;2022-12-07T00:09:36;29.17;;;17.83;;
36383;SDS011;22418;51.210;6.976;2022-12-07T00:12:07;30.08;;;17.30;;
36383;SDS011;22418;51.210;6.976;2022-12-07T00:14:38;29.65;;;17.98;;
36383;SDS011;22418;51.210;6.976;2022-12-07T00:17:08;29.37;;;17.77;;
36383;SDS011;22418;51.210;6.976;2022-12-07T00:19:39;31.80;;;17.13;;
36383;SDS011;22418;51.210;6.976;2022-12-07T00:22:09;31.37;;;17.80;;
36383;SDS011;22418;51.210;6.976;2022-12-07T00:24:40;30.67;;;17.13;;
36383;SDS011;22418;51.210;6.976;2022-12-07T00:27:11;30.50;;;18.53;;
36383;SDS011;22418;51.210;6.976;2022-12-07T00:29:41;37.80;;;18.53;;
36383;SDS011;22418;51.210;6.976;2022-12-07T00:32:12;33.63;;;18.70;;
36383;SDS011;22418;51.210;6.976;2022-12-07T00:34:42;35.53;;;18.23;;
36383;SDS011;22418;51.210;6.976;2022-12-07T00:37:13;31.90;;;17.47;;
36383;SDS011;22418;51.210;6.976;2022-12-07T00:39:43;33.83;;;17.23;;
36383;SDS011;22418;51.210;6.976;2022-12-07T00:42:15;29.83;;;17.77;;
36383;SDS011;22418;51.210;6.976;2022-12-07T00:44:46;36.80;;;17.83;;
36383;SDS011;22418;51.210;6.976;2022-12-07T00:47:16;32.67;;;18.57;;
36383;SDS011;22418;51.210;6.976;2022-12-07T00:49:47;31.53;;;17.13;;
36383;SDS011;22418;51.210;6.976;2022-12-07T00:52:18;28.50;;;18.13;;
36383;SDS011;22418;51.210;6.976;2022-12-07T00:54:48;33.07;;;17.63;;
36383;SDS011;22418;51.210;6.976;2022-12-07T00:57:19;33.80;;;19.33;;
36383;SDS011;22418;51.210;6.976;2022-12-07T00:59:49;37.37;;;19.50;;
36383;SDS011;22418;51.210;6.976;2022-12-07T01:02:20;33.13;;;19.97;;
36383;SDS011;22418;51.210;6.976;2022-12-07T01:04:52;34.72;;;18.23;;
36383;SDS011;22418;51.210;6.976;2022-12-07T01:07:22;32.57;;;18.10;;
36383;SDS011;22418;51.210;6.976;2022-12-07T01:09:53;31.60;;;18.80;;
36383;SDS011;22418;51.210;6.976;2022-12-07T01:12:23;30.33;;;17.77;;
36383;SDS011;22418;51.210;6.976;2022-12-07T01:14:54;32.50;;;19.03;;
36383;SDS011;22418;51.210;6.976;2022-12-07T01:17:24;35.27;;;19.90;;
36383;SDS011;22418;51.210;6.976;2022-12-07T01:19:55;32.50;;;19.03;;
36383;SDS011;22418;51.210;6.976;2022-12-07T01:22:26;34.93;;;18.70;;
36383;SDS011;22418;51.210;6.976;2022-12-07T01:24:56;31.60;;;19.43;;
36383;SDS011;22418;51.210;6.976;2022-12-07T01:27:27;36.17;;;20.20;;
36383;SDS011;22418;51.210;6.976;2022-12-07T01:29:57;36.43;;;19.83;;
36383;SDS011;22418;51.210;6.976;2022-12-07T01:32:28;31.23;;;18.83;;
36383;SDS011;22418;51.210;6.976;2022-12-07T01:34:59;31.65;;;20.45;;
36383;SDS011;22418;51.210;6.976;2022-12-07T01:37:33;36.13;;;19.57;;
36383;SDS011;22418;51.210;6.976;2022-12-07T01:40:07;31.20;;;19.48;;
36383;SDS011;22418;51.210;6.976;2022-12-07T01:42:40;32.40;;;19.08;;
36383;SDS011;22418;51.210;6.976;2022-12-07T01:47:51;36.30;;;19.65;;
36383;SDS011;22418;51.210;6.976;2022-12-07T01:50:25;34.92;;;19.77;;
36383;SDS011;22418;51.210;6.976;2022-12-07T01:52:57;30.48;;;18.85;;
36383;SDS011;22418;51.210;6.976;2022-12-07T01:55:32;31.92;;;19.58;;
36383;SDS011;22418;51.210;6.976;2022-12-07T01:58:04;30.02;;;18.60;;
36383;SDS011;22418;51.210;6.976;2022-12-07T02:00:35;33.30;;;19.33;;
36383;SDS011;22418;51.210;6.976;2022-12-07T02:03:09;35.13;;;20.40;;
36383;SDS011;22418;51.210;6.976;2022-12-07T02:05:58;28.73;;;18.13;;
36383;SDS011;22418;51.210;6.976;2022-12-07T02:08:30;31.92;;;18.77;;
36383;SDS011;22418;51.210;6.976;2022-12-07T02:11:02;32.90;;;19.53;;
36383;SDS011;22418;51.210;6.976;2022-12-07T02:13:35;29.63;;;18.30;;
36383;SDS011;22418;51.210;6.976;2022-12-07T02:16:17;32.70;;;18.00;;
36383;SDS011;22418;51.210;6.976;2022-12-07T02:22:00;35.47;;;19.65;;
36383;SDS011;22418;51.210;6.976;2022-12-07T02:24:54;36.25;;;20.55;;
36383;SDS011;22418;51.210;6.976;2022-12-07T02:30:29;36.65;;;20.17;;
36383;SDS011;22418;51.210;6.976;2022-12-07T02:36:08;34.13;;;18.38;;
36383;SDS011;22418;51.210;6.976;2022-12-07T02:41:29;32.33;;;18.88;;
36383;SDS011;22418;51.210;6.976;2022-12-07T02:44:12;29.50;;;18.48;;
36383;SDS011;22418;51.210;6.976;2022-12-07T02:46:49;30.20;;;17.83;;
36383;SDS011;22418;51.210;6.976;2022-12-07T02:49:24;28.80;;;17.83;;
36383;SDS011;22418;51.210;6.976;2022-12-07T02:51:57;33.72;;;19.80;;
36383;SDS011;22418;51.210;6.976;2022-12-07T02:54:27;35.07;;;18.63;;
36383;SDS011;22418;51.210;6.976;2022-12-07T02:57:05;31.63;;;18.87;;
36383;SDS011;22418;51.210;6.976;2022-12-07T03:11:47;31.60;;;17.83;;
36383;SDS011;22418;51.210;6.976;2022-12-07T03:14:24;28.27;;;17.13;;
36383;SDS011;22418;51.210;6.976;2022-12-07T03:17:08;29.88;;;18.83;;
36383;SDS011;22418;51.210;6.976;2022-12-07T03:19:44;27.92;;;17.75;;
36383;SDS011;22418;51.210;6.976;2022-12-07T03:22:16;31.48;;;18.08;;
36383;SDS011;22418;51.210;6.976;2022-12-07T03:24:55;32.45;;;17.90;;
36383;SDS011;22418;51.210;6.976;2022-12-07T03:27:30;28.85;;;17.17;;
36383;SDS011;22418;51.210;6.976;2022-12-07T03:30:11;30.92;;;16.95;;
36383;SDS011;22418;51.210;6.976;2022-12-07T03:32:51;29.02;;;17.10;;
36383;SDS011;22418;51.210;6.976;2022-12-07T03:35:45;30.15;;;17.92;;
36383;SDS011;22418;51.210;6.976;2022-12-07T03:38:27;26.58;;;16.65;;
36383;SDS011;22418;51.210;6.976;2022-12-07T03:43:39;31.95;;;17.20;;
36383;SDS011;22418;51.210;6.976;2022-12-07T03:57:49;29.88;;;16.30;;
36383;SDS011;22418;51.210;6.976;2022-12-07T04:00:23;27.40;;;16.05;;
36383;SDS011;22418;51.210;6.976;2022-12-07T04:02:54;27.03;;;16.67;;
36383;SDS011;22418;51.210;6.976;2022-12-07T04:05:25;28.63;;;15.15;;
36383;SDS011;22418;51.210;6.976;2022-12-07T04:07:56;30.93;;;15.97;;
36383;SDS011;22418;51.210;6.976;2022-12-07T04:10:27;28.03;;;16.50;;
36383;SDS011;22418;51.210;6.976;2022-12-07T04:12:57;35.47;;;16.20;;
36383;SDS011;22418;51.210;6.976;2022-12-07T04:15:28;33.17;;;16.77;;
36383;SDS011;22418;51.210;6.976;2022-12-07T04:17:58;29.07;;;16.70;;
36383;SDS011;22418;51.210;6.976;2022-12-07T04:20:29;32.53;;;15.40;;
36383;SDS011;22418;51.210;6.976;2022-12-07T04:23:02;24.70;;;15.70;;
36383;SDS011;22418;51.210;6.976;2022-12-07T04:25:33;28.67;;;14.47;;
36383;SDS011;22418;51.210;6.976;2022-12-07T04:28:03;27.53;;;15.90;;
36383;SDS011;22418;51.210;6.976;2022-12-07T04:30:34;28.33;;;15.40;;
36383;SDS011;22418;51.210;6.976;2022-12-07T04:33:05;27.40;;;15.43;;
36383;SDS011;22418;51.210;6.976;2022-12-07T04:35:35;30.20;;;15.07;;
36383;SDS011;22418;51.210;6.976;2022-12-07T04:38:06;23.87;;;14.77;;
36383;SDS011;22418;51.210;6.976;2022-12-07T04:40:36;31.30;;;16.03;;
36383;SDS011;22418;51.210;6.976;2022-12-07T04:43:07;26.67;;;15.10;;
36383;SDS011;22418;51.210;6.976;2022-12-07T04:45:38;26.13;;;16.20;;
36383;SDS011;22418;51.210;6.976;2022-12-07T04:48:08;27.47;;;15.60;;
36383;SDS011;22418;51.210;6.976;2022-12-07T04:50:39;25.63;;;16.20;;
36383;SDS011;22418;51.210;6.976;2022-12-07T04:53:09;28.80;;;14.97;;
36383;SDS011;22418;51.210;6.976;2022-12-07T04:55:40;29.23;;;15.80;;
36383;SDS011;22418;51.210;6.976;2022-12-07T04:58:11;26.90;;;15.63;;
36383;SDS011;22418;51.210;6.976;2022-12-07T05:00:42;25.73;;;14.98;;
36383;SDS011;22418;51.210;6.976;2022-12-07T05:03:13;32.77;;;15.47;;
36383;SDS011;22418;51.210;6.976;2022-12-07T05:05:43;27.63;;;15.37;;
36383;SDS011;22418;51.210;6.976;2022-12-07T05:08:14;24.43;;;14.13;;
36383;SDS011;22418;51.210;6.976;2022-12-07T05:10:44;23.57;;;14.27;;
36383;SDS011;22418;51.210;6.976;2022-12-07T05:13:15;22.00;;;14.90;;
36383;SDS011;22418;51.210;6.976;2022-12-07T05:15:49;24.57;;;14.50;;
36383;SDS011;22418;51.210;6.976;2022-12-07T05:18:19;32.03;;;16.20;;
36383;SDS011;22418;51.210;6.976;2022-12-07T05:20:50;23.63;;;15.40;;
36383;SDS011;22418;51.210;6.976;2022-12-07T05:23:21;30.80;;;15.40;;
36383;SDS011;22418;51.210;6.976;2022-12-07T05:25:51;26.57;;;14.73;;
36383;SDS011;22418;51.210;6.976;2022-12-07T05:28:22;23.80;;;13.90;;
36383;SDS011;22418;51.210;6.976;2022-12-07T05:30:53;30.23;;;15.03;;
36383;SDS011;22418;51.210;6.976;2022-12-07T05:33:23;25.43;;;13.70;;
36383;SDS011;22418;51.210;6.976;2022-12-07T05:35:54;26.50;;;13.77;;
36383;SDS011;22418;51.210;6.976;2022-12-07T05:38:24;25.80;;;14.53;;
36383;SDS011;22418;51.210;6.976;2022-12-07T05:40:55;26.00;;;14.27;;
36383;SDS011;22418;51.210;6.976;2022-12-07T05:43:29;25.67;;;14.20;;
36383;SDS011;22418;51.210;6.976;2022-12-07T05:46:00;33.28;;;15.05;;
36383;SDS011;22418;51.210;6.976;2022-12-07T05:48:30;27.17;;;14.43;;
36383;SDS011;22418;51.210;6.976;2022-12-07T05:51:03;30.37;;;13.53;;
36383;SDS011;22418;51.210;6.976;2022-12-07T05:53:34;27.75;;;14.57;;
36383;SDS011;22418;51.210;6.976;2022-12-07T05:56:05;26.03;;;13.87;;
36383;SDS011;22418;51.210;6.976;2022-12-07T05:58:35;29.80;;;13.30;;
36383;SDS011;22418;51.210;6.976;2022-12-07T06:01:25;28.10;;;14.82;;
36383;SDS011;22418;51.210;6.976;2022-12-07T06:03:56;27.73;;;13.63;;
36383;SDS011;22418;51.210;6.976;2022-12-07T06:06:26;25.83;;;13.80;;
36383;SDS011;22418;51.210;6.976;2022-12-07T06:08:57;23.83;;;12.93;;
36383;SDS011;22418;51.210;6.976;2022-12-07T06:11:27;24.17;;;12.83;;
36383;SDS011;22418;51.210;6.976;2022-12-07T06:14:17;28.80;;;13.40;;
36383;SDS011;22418;51.210;6.976;2022-12-07T06:16:47;29.60;;;13.20;;
36383;SDS011;22418;51.210;6.976;2022-12-07T06:19:18;22.90;;;12.23;;
36383;SDS011;22418;51.210;6.976;2022-12-07T06:21:48;29.23;;;12.30;;
36383;SDS011;22418;51.210;6.976;2022-12-07T06:24:19;21.77;;;11.47;;
36383;SDS011;22418;51.210;6.976;2022-12-07T06:26:50;23.00;;;11.90;;
36383;SDS011;22418;51.210;6.976;2022-12-07T06:29:21;24.15;;;11.63;;
36383;SDS011;22418;51.210;6.976;2022-12-07T06:31:52;20.80;;;11.13;;
36383;SDS011;22418;51.210;6.976;2022-12-07T06:34:23;25.10;;;11.03;;
36383;SDS011;22418;51.210;6.976;2022-12-07T06:36:54;27.27;;;12.45;;
36383;SDS011;22418;51.210;6.976;2022-12-07T06:39:26;22.20;;;10.75;;
36383;SDS011;22418;51.210;6.976;2022-12-07T06:41:58;20.15;;;10.38;;
36383;SDS011;22418;51.210;6.976;2022-12-07T06:44:29;20.87;;;11.30;;
36383;SDS011;22418;51.210;6.976;2022-12-07T06:46:59;23.37;;;11.20;;
36383;SDS011;22418;51.210;6.976;2022-12-07T06:49:30;23.27;;;11.23;;
36383;SDS011;22418;51.210;6.976;2022-12-07T06:52:00;27.30;;;11.67;;
36383;SDS011;22418;51.210;6.976;2022-12-07T06:54:31;21.87;;;12.37;;
36383;SDS011;22418;51.210;6.976;2022-12-07T06:57:01;21.80;;;11.87;;
36383;SDS011;22418;51.210;6.976;2022-12-07T06:59:32;24.20;;;12.87;;
36383;SDS011;22418;51.210;6.976;2022-12-07T07:02:02;21.53;;;12.47;;
36383;SDS011;22418;51.210;6.976;2022-12-07T07:04:33;25.30;;;12.33;;
36383;SDS011;22418;51.210;6.976;2022-12-07T07:07:04;26.50;;;11.53;;
36383;SDS011;22418;51.210;6.976;2022-12-07T07:09:34;20.07;;;11.30;;
36383;SDS011;22418;51.210;6.976;2022-12-07T07:12:05;22.63;;;11.93;;
36383;SDS011;22418;51.210;6.976;2022-12-07T07:14:35;25.92;;;11.75;;
36383;SDS011;22418;51.210;6.976;2022-12-07T07:17:06;25.20;;;12.40;;
36383;SDS011;22418;51.210;6.976;2022-12-07T07:19:37;24.37;;;11.53;;
36383;SDS011;22418;51.210;6.976;2022-12-07T07:22:07;19.83;;;10.60;;
36383;SDS011;22418;51.210;6.976;2022-12-07T07:24:38;22.53;;;11.03;;
36383;SDS011;22418;51.210;6.976;2022-12-07T07:27:08;18.80;;;11.10;;
36383;SDS011;22418;51.210;6.976;2022-12-07T07:29:39;24.37;;;10.90;;
36383;SDS011;22418;51.210;6.976;2022-12-07T07:32:09;23.00;;;11.17;;
36383;SDS011;22418;51.210;6.976;2022-12-07T07:34:40;18.67;;;10.50;;
36383;SDS011;22418;51.210;6.976;2022-12-07T07:37:11;23.80;;;11.17;;
36383;SDS011;22418;51.210;6.976;2022-12-07T07:42:13;21.83;;;10.83;;
36383;SDS011;22418;51.210;6.976;2022-12-07T07:44:44;26.00;;;11.48;;
36383;SDS011;22418;51.210;6.976;2022-12-07T07:47:15;20.30;;;10.70;;
36383;SDS011;22418;51.210;6.976;2022-12-07T07:49:46;22.67;;;10.70;;
36383;SDS011;22418;51.210;6.976;2022-12-07T07:52:16;18.50;;;9.73;;
36383;SDS011;22418;51.210;6.976;2022-12-07T07:54:47;19.53;;;9.93;;
36383;SDS011;22418;51.210;6.976;2022-12-07T07:57:17;19.83;;;10.17;;
36383;SDS011;22418;51.210;6.976;2022-12-07T07:59:48;20.70;;;9.93;;
36383;SDS011;22418;51.210;6.976;2022-12-07T08:02:19;26.27;;;11.50;;
36383;SDS011;22418;51.210;6.976;2022-12-07T08:04:50;17.45;;;10.10;;
36383;SDS011;22418;51.210;6.976;2022-12-07T08:07:21;19.93;;;10.20;;
36383;SDS011;22418;51.210;6.976;2022-12-07T08:09:51;20.03;;;9.93;;
36383;SDS011;22418;51.210;6.976;2022-12-07T08:12:22;16.30;;;9.27;;
36383;SDS011;22418;51.210;6.976;2022-12-07T08:14:53;20.17;;;11.60;;
36383;SDS011;22418;51.210;6.976;2022-12-07T08:17:23;20.83;;;10.00;;
36383;SDS011;22418;51.210;6.976;2022-12-07T08:19:54;22.80;;;10.37;;
36383;SDS011;22418;51.210;6.976;2022-12-07T08:22:24;18.47;;;10.10;;
36383;SDS011;22418;51.210;6.976;2022-12-07T08:24:55;20.57;;;10.13;;
36383;SDS011;22418;51.210;6.976;2022-12-07T08:27:28;18.65;;;9.95;;
36383;SDS011;22418;51.210;6.976;2022-12-07T08:29:58;20.27;;;10.50;;
36383;SDS011;22418;51.210;6.976;2022-12-07T08:32:29;20.63;;;11.20;;
36383;SDS011;22418;51.210;6.976;2022-12-07T08:35:00;18.80;;;11.27;;
36383;SDS011;22418;51.210;6.976;2022-12-07T08:37:31;28.67;;;16.97;;
36383;SDS011;22418;51.210;6.976;2022-12-07T08:40:02;22.55;;;12.05;;
36383;SDS011;22418;51.210;6.976;2022-12-07T08:42:34;20.63;;;10.98;;
36383;SDS011;22418;51.210;6.976;2022-12-07T08:45:11;20.77;;;10.15;;
36383;SDS011;22418;51.210;6.976;2022-12-07T08:47:44;24.55;;;10.18;;
36383;SDS011;22418;51.210;6.976;2022-12-07T08:50:26;23.77;;;10.13;;
36383;SDS011;22418;51.210;6.976;2022-12-07T08:52:57;19.17;;;10.20;;
36383;SDS011;22418;51.210;6.976;2022-12-07T08:55:29;17.83;;;9.65;;
36383;SDS011;22418;51.210;6.976;2022-12-07T08:58:00;24.63;;;9.97;;
36383;SDS011;22418;51.210;6.976;2022-12-07T09:00:32;22.88;;;9.77;;
36383;SDS011;22418;51.210;6.976;2022-12-07T09:03:02;21.83;;;9.63;;
36383;SDS011;22418;51.210;6.976;2022-12-07T09:05:33;21.50;;;9.90;;
36383;SDS011;22418;51.210;6.976;2022-12-07T09:08:04;21.27;;;10.85;;
36383;SDS011;22418;51.210;6.976;2022-12-07T09:10:35;23.67;;;9.93;;
36383;SDS011;22418;51.210;6.976;2022-12-07T09:13:05;21.73;;;9.57;;
36383;SDS011;22418;51.210;6.976;2022-12-07T09:15:36;19.83;;;10.07;;
36383;SDS011;22418;51.210;6.976;2022-12-07T09:18:06;23.70;;;9.50;;
36383;SDS011;22418;51.210;6.976;2022-12-07T09:20:37;19.77;;;9.17;;
36383;SDS011;22418;51.210;6.976;2022-12-07T09:23:08;20.10;;;8.90;;
36383;SDS011;22418;51.210;6.976;2022-12-07T09:25:38;21.50;;;8.80;;
36383;SDS011;22418;51.210;6.976;2022-12-07T09:28:09;18.07;;;8.40;;
36383;SDS011;22418;51.210;6.976;2022-12-07T09:30:44;17.30;;;8.80;;
36383;SDS011;22418;51.210;6.976;2022-12-07T09:33:17;19.58;;;9.05;;
36383;SDS011;22418;51.210;6.976;2022-12-07T09:35:48;22.93;;;9.03;;
36383;SDS011;22418;51.210;6.976;2022-12-07T09:38:20;15.75;;;8.02;;
36383;SDS011;22418;51.210;6.976;2022-12-07T09:40:50;20.88;;;8.02;;
36383;SDS011;22418;51.210;6.976;2022-12-07T09:43:22;18.53;;;7.67;;
36383;SDS011;22418;51.210;6.976;2022-12-07T09:45:54;15.45;;;7.63;;
36383;SDS011;22418;51.210;6.976;2022-12-07T09:51:24;14.25;;;7.28;;
36383;SDS011;22418;51.210;6.976;2022-12-07T09:53:56;17.95;;;6.82;;
36383;SDS011;22418;51.210;6.976;2022-12-07T09:56:29;20.77;;;6.68;;
36383;SDS011;22418;51.210;6.976;2022-12-07T09:59:03;16.25;;;6.75;;
36383;SDS011;22418;51.210;6.976;2022-12-07T10:01:33;20.17;;;6.90;;
36383;SDS011;22418;51.210;6.976;2022-12-07T10:04:12;19.53;;;6.43;;
36383;SDS011;22418;51.210;6.976;2022-12-07T10:06:53;20.75;;;7.10;;
36383;SDS011;22418;51.210;6.976;2022-12-07T10:09:24;16.30;;;6.80;;
36383;SDS011;22418;51.210;6.976;2022-12-07T10:14:35;18.35;;;5.85;;
36383;SDS011;22418;51.210;6.976;2022-12-07T10:23:02;18.30;;;5.75;;
36383;SDS011;22418;51.210;6.976;2022-12-07T10:25:35;16.42;;;5.05;;
36383;SDS011;22418;51.210;6.976;2022-12-07T10:33:30;12.93;;;5.63;;
36383;SDS011;22418;51.210;6.976;2022-12-07T10:36:16;20.17;;;6.28;;
36383;SDS011;22418;51.210;6.976;2022-12-07T10:39:01;16.98;;;6.38;;
36383;SDS011;22418;51.210;6.976;2022-12-07T10:41:52;15.90;;;6.70;;
36383;SDS011;22418;51.210;6.976;2022-12-07T10:44:26;15.23;;;5.32;;
36383;SDS011;22418;51.210;6.976;2022-12-07T10:47:14;12.88;;;5.38;;
36383;SDS011;22418;51.210;6.976;2022-12-07T10:58:33;15.80;;;5.15;;
36383;SDS011;22418;51.210;6.976;2022-12-07T11:01:26;12.27;;;4.80;;
36383;SDS011;22418;51.210;6.976;2022-12-07T11:15:33;11.40;;;4.90;;
36383;SDS011;22418;51.210;6.976;2022-12-07T11:21:10;14.40;;;5.57;;
36383;SDS011;22418;51.210;6.976;2022-12-07T11:24:09;14.85;;;5.30;;
36383;SDS011;22418;51.210;6.976;2022-12-07T11:26:52;24.95;;;6.05;;
36383;SDS011;22418;51.210;6.976;2022-12-07T11:29:42;15.98;;;5.13;;
36383;SDS011;22418;51.210;6.976;2022-12-07T11:35:56;14.77;;;4.78;;
36383;SDS011;22418;51.210;6.976;2022-12-07T11:41:14;13.52;;;5.25;;
36383;SDS011;22418;51.210;6.976;2022-12-07T11:43:53;21.95;;;5.13;;
36383;SDS011;22418;51.210;6.976;2022-12-07T11:46:29;19.05;;;4.97;;
36383;SDS011;22418;51.210;6.976;2022-12-07T11:49:21;19.80;;;4.95;;
36383;SDS011;22418;51.210;6.976;2022-12-07T11:52:20;12.45;;;4.95;;
36383;SDS011;22418;51.210;6.976;2022-12-07T11:54:56;19.80;;;3.72;;
36383;SDS011;22418;51.210;6.976;2022-12-07T11:57:44;14.18;;;4.13;;
36383;SDS011;22418;51.210;6.976;2022-12-07T12:00:20;15.73;;;3.60;;
36383;SDS011;22418;51.210;6.976;2022-12-07T12:02:58;13.85;;;4.43;;
36383;SDS011;22418;51.210;6.976;2022-12-07T12:05:47;12.77;;;3.28;;
36383;SDS011;22418;51.210;6.976;2022-12-07T12:08:21;14.88;;;3.72;;
36383;SDS011;22418;51.210;6.976;2022-12-07T12:22:43;9.60;;;2.80;;
36383;SDS011;22418;51.210;6.976;2022-12-07T12:25:20;13.80;;;3.50;;
36383;SDS011;22418;51.210;6.976;2022-12-07T12:27:58;17.92;;;3.58;;
36383;SDS011;22418;51.210;6.976;2022-12-07T12:30:31;12.95;;;3.90;;
36383;SDS011;22418;51.210;6.976;2022-12-07T12:35:44;14.77;;;3.83;;
36383;SDS011;22418;51.210;6.976;2022-12-07T12:41:03;8.23;;;3.47;;
36383;SDS011;22418;51.210;6.976;2022-12-07T12:43:48;8.35;;;3.10;;
36383;SDS011;22418;51.210;6.976;2022-12-07T12:51:48;11.70;;;3.90;;
36383;SDS011;22418;51.210;6.976;2022-12-07T12:54:26;15.27;;;4.45;;
36383;SDS011;22418;51.210;6.976;2022-12-07T13:02:28;11.15;;;3.97;;
36383;SDS011;22418;51.210;6.976;2022-12-07T13:15:45;13.63;;;3.78;;
36383;SDS011;22418;51.210;6.976;2022-12-07T13:31:44;15.07;;;4.40;;
36383;SDS011;22418;51.210;6.976;2022-12-07T13:37:04;17.45;;;4.40;;
36383;SDS011;22418;51.210;6.976;2022-12-07T13:39:53;8.00;;;2.85;;
36383;SDS011;22418;51.210;6.976;2022-12-07T13:45:16;13.38;;;3.78;;
36383;SDS011;22418;51.210;6.976;2022-12-07T13:47:52;13.55;;;3.70;;
36383;SDS011;22418;51.210;6.976;2022-12-07T13:50:28;21.63;;;3.78;;
36383;SDS011;22418;51.210;6.976;2022-12-07T13:53:00;12.50;;;3.08;;
36383;SDS011;22418;51.210;6.976;2022-12-07T13:55:31;13.68;;;4.07;;
36383;SDS011;22418;51.210;6.976;2022-12-07T13:58:02;12.52;;;3.90;;
36383;SDS011;22418;51.210;6.976;2022-12-07T14:00:33;11.37;;;3.33;;
36383;SDS011;22418;51.210;6.976;2022-12-07T14:03:04;16.23;;;4.30;;
36383;SDS011;22418;51.210;6.976;2022-12-07T14:06:13;18.15;;;3.17;;
36383;SDS011;22418;51.210;6.976;2022-12-07T14:08:46;11.18;;;3.30;;
36383;SDS011;22418;51.210;6.976;2022-12-07T14:11:17;14.90;;;3.27;;
36383;SDS011;22418;51.210;6.976;2022-12-07T14:13:56;10.93;;;2.70;;
36383;SDS011;22418;51.210;6.976;2022-12-07T14:16:31;10.88;;;2.80;;
36383;SDS011;22418;51.210;6.976;2022-12-07T14:27:31;7.72;;;2.22;;
36383;SDS011;22418;51.210;6.976;2022-12-07T14:30:04;11.88;;;2.38;;
36383;SDS011;22418;51.210;6.976;2022-12-07T14:32:36;9.02;;;2.20;;
36383;SDS011;22418;51.210;6.976;2022-12-07T14:35:09;16.17;;;2.88;;
36383;SDS011;22418;51.210;6.976;2022-12-07T14:37:43;11.15;;;2.65;;
36383;SDS011;22418;51.210;6.976;2022-12-07T14:40:19;14.98;;;3.00;;
36383;SDS011;22418;51.210;6.976;2022-12-07T14:42:54;8.93;;;2.17;;
36383;SDS011;22418;51.210;6.976;2022-12-07T14:45:28;15.90;;;2.58;;
36383;SDS011;22418;51.210;6.976;2022-12-07T14:47:59;8.65;;;2.60;;
36383;SDS011;22418;51.210;6.976;2022-12-07T14:50:30;14.13;;;2.50;;
36383;SDS011;22418;51.210;6.976;2022-12-07T14:53:14;13.68;;;2.60;;
36383;SDS011;22418;51.210;6.976;2022-12-07T14:55:46;13.27;;;2.33;;
36383;SDS011;22418;51.210;6.976;2022-12-07T14:58:17;8.47;;;2.37;;
36383;SDS011;22418;51.210;6.976;2022-12-07T15:00:48;12.23;;;2.42;;
36383;SDS011;22418;51.210;6.976;2022-12-07T15:03:18;15.33;;;2.70;;
36383;SDS011;22418;51.210;6.976;2022-12-07T15:05:49;10.90;;;2.47;;
36383;SDS011;22418;51.210;6.976;2022-12-07T15:08:20;10.33;;;2.10;;
36383;SDS011;22418;51.210;6.976;2022-12-07T15:10:50;6.43;;;2.50;;
36383;SDS011;22418;51.210;6.976;2022-12-07T15:13:21;14.07;;;3.10;;
36383;SDS011;22418;51.210;6.976;2022-12-07T15:16:12;19.55;;;3.30;;
36383;SDS011;22418;51.210;6.976;2022-12-07T15:18:46;12.25;;;3.03;;
36383;SDS011;22418;51.210;6.976;2022-12-07T15:21:17;13.83;;;2.97;;
36383;SDS011;22418;51.210;6.976;2022-12-07T15:23:47;16.90;;;2.70;;
36383;SDS011;22418;51.210;6.976;2022-12-07T15:26:18;17.77;;;2.85;;
36383;SDS011;22418;51.210;6.976;2022-12-07T15:28:49;12.60;;;2.30;;
36383;SDS011;22418;51.210;6.976;2022-12-07T15:31:19;22.87;;;3.00;;
36383;SDS011;22418;51.210;6.976;2022-12-07T15:33:50;9.27;;;2.23;;
36383;SDS011;22418;51.210;6.976;2022-12-07T15:36:22;6.63;;;2.30;;
36383;SDS011;22418;51.210;6.976;2022-12-07T15:38:55;8.20;;;2.10;;
36383;SDS011;22418;51.210;6.976;2022-12-07T15:41:26;13.38;;;2.13;;
36383;SDS011;22418;51.210;6.976;2022-12-07T15:43:56;8.13;;;2.38;;
36383;SDS011;22418;51.210;6.976;2022-12-07T15:46:46;11.75;;;2.67;;
36383;SDS011;22418;51.210;6.976;2022-12-07T15:49:17;11.17;;;2.50;;
36383;SDS011;22418;51.210;6.976;2022-12-07T15:51:49;18.27;;;3.65;;
36383;SDS011;22418;51.210;6.976;2022-12-07T15:54:20;15.20;;;2.73;;
36383;SDS011;22418;51.210;6.976;2022-12-07T15:56:53;14.55;;;2.80;;
36383;SDS011;22418;51.210;6.976;2022-12-07T15:59:25;16.30;;;3.45;;
36383;SDS011;22418;51.210;6.976;2022-12-07T16:01:56;13.85;;;3.65;;
36383;SDS011;22418;51.210;6.976;2022-12-07T16:04:28;20.00;;;4.93;;
36383;SDS011;22418;51.210;6.976;2022-12-07T16:06:59;14.52;;;4.25;;
36383;SDS011;22418;51.210;6.976;2022-12-07T16:09:30;18.13;;;3.80;;
36383;SDS011;22418;51.210;6.976;2022-12-07T16:12:00;16.13;;;4.17;;
36383;SDS011;22418;51.210;6.976;2022-12-07T16:14:31;10.80;;;3.80;;
36383;SDS011;22418;51.210;6.976;2022-12-07T16:17:03;15.52;;;4.22;;
36383;SDS011;22418;51.210;6.976;2022-12-07T16:19:34;22.98;;;6.63;;
36383;SDS011;22418;51.210;6.976;2022-12-07T16:22:06;18.88;;;5.43;;
36383;SDS011;22418;51.210;6.976;2022-12-07T16:24:36;17.83;;;8.03;;
36383;SDS011;22418;51.210;6.976;2022-12-07T16:27:07;25.87;;;9.53;;
36383;SDS011;22418;51.210;6.976;2022-12-07T16:29:38;25.40;;;10.67;;
36383;SDS011;22418;51.210;6.976;2022-12-07T16:32:08;39.67;;;17.47;;
36383;SDS011;22418;51.210;6.976;2022-12-07T16:34:39;23.87;;;9.83;;
36383;SDS011;22418;51.210;6.976;2022-12-07T16:37:10;25.20;;;8.55;;
36383;SDS011;22418;51.210;6.976;2022-12-07T16:39:40;18.37;;;7.83;;
36383;SDS011;22418;51.210;6.976;2022-12-07T16:42:11;20.27;;;7.20;;
36383;SDS011;22418;51.210;6.976;2022-12-07T16:44:41;23.07;;;7.57;;
36383;SDS011;22418;51.210;6.976;2022-12-07T16:47:12;15.67;;;6.60;;
36383;SDS011;22418;51.210;6.976;2022-12-07T16:49:43;18.73;;;6.32;;
36383;SDS011;22418;51.210;6.976;2022-12-07T16:52:14;14.13;;;6.13;;
36383;SDS011;22418;51.210;6.976;2022-12-07T16:54:45;21.37;;;6.50;;
36383;SDS011;22418;51.210;6.976;2022-12-07T16:57:16;32.80;;;14.68;;
36383;SDS011;22418;51.210;6.976;2022-12-07T16:59:47;22.13;;;8.35;;
36383;SDS011;22418;51.210;6.976;2022-12-07T17:02:18;14.23;;;6.47;;
36383;SDS011;22418;51.210;6.976;2022-12-07T17:04:49;15.68;;;6.32;;
36383;SDS011;22418;51.210;6.976;2022-12-07T17:07:20;19.90;;;6.28;;
36383;SDS011;22418;51.210;6.976;2022-12-07T17:09:52;11.33;;;5.47;;
36383;SDS011;22418;51.210;6.976;2022-12-07T17:12:23;19.27;;;6.47;;
36383;SDS011;22418;51.210;6.976;2022-12-07T17:14:53;19.67;;;6.57;;
36383;SDS011;22418;51.210;6.976;2022-12-07T17:17:43;16.98;;;6.78;;
36383;SDS011;22418;51.210;6.976;2022-12-07T17:20:15;16.77;;;6.53;;
36383;SDS011;22418;51.210;6.976;2022-12-07T17:25:18;17.02;;;6.20;;
36383;SDS011;22418;51.210;6.976;2022-12-07T17:27:48;15.02;;;6.32;;
36383;SDS011;22418;51.210;6.976;2022-12-07T17:32:51;19.70;;;7.03;;
36383;SDS011;22418;51.210;6.976;2022-12-07T17:35:21;18.23;;;7.00;;
36383;SDS011;22418;51.210;6.976;2022-12-07T17:37:52;30.63;;;11.83;;
36383;SDS011;22418;51.210;6.976;2022-12-07T17:40:22;24.13;;;9.30;;
36383;SDS011;22418;51.210;6.976;2022-12-07T17:42:53;18.80;;;8.67;;
36383;SDS011;22418;51.210;6.976;2022-12-07T17:45:23;18.03;;;8.93;;